createdAt,value
2023-05-05T00:01:01.271Z,11.50
2023-05-05T00:03:28.994Z,11.50
2023-05-05T00:05:57.038Z,11.50
2023-05-05T00:08:24.618Z,11.50
2023-05-05T00:10:53.647Z,11.50
2023-05-05T00:13:22.155Z,11.50
2023-05-05T00:15:52.036Z,11.50
2023-05-05T00:18:20.678Z,11.50
2023-05-05T00:20:48.804Z,11.50
2023-05-05T00:23:17.122Z,11.50
2023-05-05T00:25:44.731Z,11.40
2023-05-05T00:28:14.366Z,11.40
2023-05-05T00:30:41.912Z,11.40
2023-05-05T00:33:09.533Z,11.40
2023-05-05T00:35:37.030Z,11.40
2023-05-05T00:38:05.352Z,11.40
2023-05-05T00:40:32.921Z,11.40
2023-05-05T00:43:00.472Z,11.40
2023-05-05T00:45:28.209Z,11.30
2023-05-05T00:47:59.195Z,11.30
2023-05-05T00:50:31.532Z,11.30
2023-05-05T00:53:04.440Z,11.30
2023-05-05T00:55:32.913Z,11.30
2023-05-05T00:58:02.133Z,11.30
2023-05-05T01:00:30.367Z,11.30
2023-05-05T01:02:58.374Z,11.30
2023-05-05T01:05:28.138Z,11.30
2023-05-05T01:08:33.201Z,11.30
2023-05-05T01:11:28.806Z,11.30
2023-05-05T01:14:06.495Z,11.30
2023-05-05T01:16:36.416Z,11.20
2023-05-05T01:19:41.367Z,11.20
2023-05-05T01:22:15.257Z,11.20
2023-05-05T01:25:15.425Z,11.20
2023-05-05T01:28:09.359Z,11.20
2023-05-05T01:30:55.589Z,11.20
2023-05-05T01:33:29.523Z,11.10
2023-05-05T01:36:03.511Z,11.10
2023-05-05T01:38:42.555Z,11.10
2023-05-05T01:41:19.735Z,11.10
2023-05-05T01:43:50.536Z,11.10
2023-05-05T01:46:22.091Z,11.10
2023-05-05T01:48:50.922Z,11.10
2023-05-05T01:51:19.686Z,11.10
2023-05-05T01:53:49.901Z,11.10
2023-05-05T01:56:18.945Z,11.10
2023-05-05T01:58:47.655Z,11.10
2023-05-05T02:01:16.184Z,11.10
2023-05-05T02:03:47.624Z,11.00
2023-05-05T02:06:20.794Z,11.00
2023-05-05T02:08:49.926Z,11.00
2023-05-05T02:11:19.795Z,11.00
2023-05-05T02:13:48.194Z,11.00
2023-05-05T02:16:17.259Z,11.00
2023-05-05T02:18:47.640Z,11.00
2023-05-05T02:21:18.076Z,11.00
2023-05-05T02:23:52.026Z,10.90
2023-05-05T02:26:22.819Z,10.90
2023-05-05T02:29:19.921Z,10.90
2023-05-05T02:31:55.736Z,10.90
2023-05-05T02:34:27.863Z,10.90
2023-05-05T02:36:58.864Z,10.90
2023-05-05T02:39:32.341Z,10.90
2023-05-05T02:42:03.337Z,10.90
2023-05-05T02:44:33.384Z,10.90
2023-05-05T02:47:06.817Z,10.90
2023-05-05T02:49:34.359Z,10.90
2023-05-05T02:52:01.929Z,10.80
2023-05-05T02:54:31.672Z,10.80
2023-05-05T02:56:59.811Z,10.80
2023-05-05T03:00:21.999Z,10.80
2023-05-05T03:02:55.630Z,10.80
2023-05-05T03:05:30.710Z,10.80
2023-05-05T03:08:24.344Z,10.80
2023-05-05T03:11:03.685Z,10.80
2023-05-05T03:13:36.140Z,10.80
2023-05-05T03:16:07.002Z,10.70
2023-05-05T03:18:35.666Z,10.80
2023-05-05T03:21:08.910Z,10.70
2023-05-05T03:23:37.377Z,10.70
2023-05-05T03:26:04.943Z,10.70
2023-05-05T03:28:32.427Z,10.70
2023-05-05T03:31:00.116Z,10.70
2023-05-05T03:33:27.620Z,10.70
2023-05-05T03:35:55.365Z,10.70
2023-05-05T03:38:23.009Z,10.70
2023-05-05T03:40:50.541Z,10.70
2023-05-05T03:43:18.014Z,10.70
2023-05-05T03:45:45.568Z,10.60
2023-05-05T03:48:13.134Z,10.60
2023-05-05T03:50:40.935Z,10.60
2023-05-05T03:53:08.745Z,10.60
2023-05-05T03:55:36.371Z,10.60
2023-05-05T03:58:03.951Z,10.60
2023-05-05T04:00:31.902Z,10.60
2023-05-05T04:02:59.477Z,10.60
2023-05-05T04:05:27.135Z,10.60
2023-05-05T04:07:54.724Z,10.60
2023-05-05T04:10:22.219Z,10.60
2023-05-05T04:12:49.763Z,10.60
2023-05-05T04:15:17.316Z,10.60
2023-05-05T04:17:44.808Z,10.60
2023-05-05T04:20:12.586Z,10.50
2023-05-05T04:22:40.905Z,10.50
2023-05-05T04:25:09.296Z,10.60
2023-05-05T04:27:36.807Z,10.50
2023-05-05T04:30:04.936Z,10.50
2023-05-05T04:32:32.745Z,10.50
2023-05-05T04:35:00.333Z,10.50
2023-05-05T04:37:27.828Z,10.50
2023-05-05T04:39:55.847Z,10.50
2023-05-05T04:42:23.413Z,10.50
2023-05-05T04:44:50.906Z,10.40
2023-05-05T04:47:18.544Z,10.50
2023-05-05T04:49:46.033Z,10.50
2023-05-05T04:52:14.339Z,10.50
2023-05-05T04:54:42.041Z,10.40
2023-05-05T04:57:09.621Z,10.50
2023-05-05T04:59:37.138Z,10.40
2023-05-05T05:02:04.778Z,10.40
2023-05-05T05:04:32.450Z,10.40
2023-05-05T05:06:59.936Z,10.40
2023-05-05T05:09:27.486Z,10.40
2023-05-05T05:11:54.966Z,10.40
2023-05-05T05:14:22.525Z,10.40
2023-05-05T05:16:52.769Z,10.40
2023-05-05T05:19:20.432Z,10.40
2023-05-05T05:21:47.969Z,10.30
2023-05-05T05:24:15.549Z,10.40
2023-05-05T05:26:43.037Z,10.30
2023-05-05T05:29:10.536Z,10.30
2023-05-05T05:31:38.101Z,10.30
2023-05-05T05:34:05.789Z,10.30
2023-05-05T05:36:33.357Z,10.30
2023-05-05T05:39:00.873Z,10.40
2023-05-05T05:41:28.343Z,10.30
2023-05-05T05:43:55.886Z,10.30
2023-05-05T05:46:23.508Z,10.30
2023-05-05T05:48:54.171Z,10.40
2023-05-05T05:51:21.792Z,10.40
2023-05-05T05:53:49.569Z,10.40
2023-05-05T05:56:17.321Z,10.40
2023-05-05T05:58:45.572Z,10.30
2023-05-05T06:01:13.199Z,10.40
2023-05-05T06:03:40.899Z,10.30
2023-05-05T06:06:08.986Z,10.40
2023-05-05T06:08:36.610Z,10.40
2023-05-05T06:11:04.182Z,10.40
2023-05-05T06:13:31.718Z,10.40
2023-05-05T06:15:59.193Z,10.40
2023-05-05T06:18:29.776Z,10.40
2023-05-05T06:20:57.544Z,10.40
2023-05-05T06:23:25.086Z,10.50
2023-05-05T06:25:54.322Z,10.50
2023-05-05T06:28:22.061Z,10.50
2023-05-05T06:30:49.574Z,10.50
2023-05-05T06:33:17.116Z,10.50
2023-05-05T06:35:44.722Z,10.50
2023-05-05T06:38:13.397Z,10.60
2023-05-05T06:40:41.027Z,10.50
2023-05-05T06:43:08.672Z,10.50
2023-05-05T06:45:36.347Z,10.50
2023-05-05T06:48:03.920Z,10.50
2023-05-05T06:50:31.459Z,10.50
2023-05-05T06:52:59.072Z,10.60
2023-05-05T06:55:26.660Z,10.60
2023-05-05T06:57:54.122Z,10.60
2023-05-05T07:00:22.631Z,10.60
2023-05-05T07:02:50.469Z,10.60
2023-05-05T07:05:18.105Z,10.70
2023-05-05T07:07:56.225Z,10.70
2023-05-05T07:10:25.177Z,10.70
2023-05-05T07:12:52.921Z,10.70
2023-05-05T07:15:28.700Z,10.70
2023-05-05T07:17:57.501Z,10.70
2023-05-05T07:20:25.791Z,10.80
2023-05-05T07:22:53.441Z,10.80
2023-05-05T07:25:21.400Z,10.80
2023-05-05T07:27:48.932Z,10.90
2023-05-05T07:30:18.424Z,10.90
2023-05-05T07:32:46.993Z,10.90
2023-05-05T07:35:14.854Z,10.90
2023-05-05T07:37:42.364Z,10.90
2023-05-05T07:40:10.413Z,11.00
2023-05-05T07:42:38.197Z,11.00
2023-05-05T07:45:07.084Z,11.00
2023-05-05T07:47:34.710Z,11.00
2023-05-05T07:50:02.384Z,11.00
2023-05-05T07:52:44.112Z,11.00
2023-05-05T07:55:16.061Z,11.10
2023-05-05T07:57:43.630Z,11.10
2023-05-05T08:00:13.625Z,11.20
2023-05-05T08:02:41.745Z,11.20
2023-05-05T08:05:09.798Z,11.10
2023-05-05T08:07:41.753Z,11.20
2023-05-05T08:10:12.402Z,11.30
2023-05-05T08:12:40.781Z,11.30
2023-05-05T08:15:09.152Z,11.30
2023-05-05T08:17:47.976Z,11.30
2023-05-05T08:20:16.741Z,11.30
2023-05-05T08:22:44.398Z,11.40
2023-05-05T08:25:13.319Z,11.40
2023-05-05T08:27:42.536Z,11.40
2023-05-05T08:30:11.167Z,11.50
2023-05-05T08:32:38.877Z,11.50
2023-05-05T08:35:07.708Z,11.50
2023-05-05T08:37:35.813Z,11.60
2023-05-05T08:40:03.712Z,11.70
2023-05-05T08:42:37.820Z,11.60
2023-05-05T08:45:08.409Z,11.60
2023-05-05T08:47:37.025Z,11.60
2023-05-05T08:50:06.143Z,11.70
2023-05-05T08:52:45.553Z,11.80
2023-05-05T08:55:27.573Z,11.80
2023-05-05T08:57:57.560Z,11.80
2023-05-05T09:00:27.426Z,11.80
2023-05-05T09:03:07.831Z,11.80
2023-05-05T09:05:36.541Z,11.90
2023-05-05T09:08:08.614Z,11.90
2023-05-05T09:10:37.101Z,11.90
2023-05-05T09:13:07.621Z,12.00
2023-05-05T09:15:35.298Z,12.10
2023-05-05T09:18:03.933Z,12.10
2023-05-05T09:20:36.287Z,12.10
2023-05-05T09:23:14.938Z,12.20
2023-05-05T09:25:46.280Z,12.10
2023-05-05T09:28:18.321Z,12.20
2023-05-05T09:30:47.221Z,12.20
2023-05-05T09:33:15.064Z,12.20
2023-05-05T09:35:49.783Z,12.30
2023-05-05T09:38:17.792Z,12.30
2023-05-05T09:40:49.728Z,12.30
2023-05-05T09:43:18.278Z,12.30
2023-05-05T09:45:55.012Z,12.40
2023-05-05T09:48:31.775Z,12.40
2023-05-05T09:50:59.968Z,12.50
2023-05-05T09:53:38.187Z,12.50
2023-05-05T09:56:06.157Z,12.50
2023-05-05T09:58:33.735Z,12.50
2023-05-05T10:01:01.612Z,12.50
2023-05-05T10:03:29.200Z,12.60
2023-05-05T10:05:59.229Z,12.60
2023-05-05T10:08:30.684Z,12.60
2023-05-05T10:11:07.208Z,12.70
2023-05-05T10:13:40.566Z,12.70
2023-05-05T10:16:10.075Z,12.70
2023-05-05T10:18:41.669Z,12.70
2023-05-05T10:21:11.483Z,12.80
2023-05-05T10:23:49.947Z,12.70
2023-05-05T10:26:20.017Z,12.70
2023-05-05T10:29:01.918Z,12.50
2023-05-05T10:31:53.035Z,12.50
2023-05-05T10:34:49.673Z,12.50
2023-05-05T10:37:19.278Z,12.60
2023-05-05T10:39:49.108Z,12.60
2023-05-05T10:42:17.604Z,12.70
2023-05-05T10:44:45.147Z,12.70
2023-05-05T10:47:13.362Z,12.60
2023-05-05T10:50:05.129Z,12.60
2023-05-05T10:52:42.998Z,12.60
2023-05-05T10:55:18.084Z,12.60
2023-05-05T10:57:46.879Z,12.60
2023-05-05T11:00:39.111Z,12.60
2023-05-05T11:03:18.822Z,12.50
2023-05-05T11:06:04.723Z,12.50
2023-05-05T11:08:34.107Z,12.40
2023-05-05T11:11:02.807Z,12.30
2023-05-05T11:13:31.481Z,12.30
2023-05-05T11:16:00.314Z,12.30
2023-05-05T11:18:46.137Z,12.30
2023-05-05T11:21:18.320Z,12.30
2023-05-05T11:23:47.663Z,12.30
2023-05-05T11:26:16.260Z,12.40
2023-05-05T11:29:05.115Z,12.50
2023-05-05T11:31:33.358Z,12.60
2023-05-05T11:34:27.290Z,12.60
2023-05-05T11:37:01.843Z,12.60
2023-05-05T11:39:54.745Z,12.60
2023-05-05T11:42:26.710Z,12.60
2023-05-05T11:44:55.003Z,12.60
2023-05-05T11:47:22.540Z,12.60
2023-05-05T11:49:50.340Z,12.60
2023-05-05T11:52:18.003Z,12.50
2023-05-05T11:54:50.603Z,12.50
2023-05-05T11:57:28.155Z,12.50
2023-05-05T12:00:02.522Z,12.40
2023-05-05T12:02:31.609Z,12.50
2023-05-05T12:05:00.737Z,12.60
2023-05-05T12:07:31.590Z,12.70
2023-05-05T12:09:59.465Z,12.70
2023-05-05T12:12:40.753Z,12.80
2023-05-05T12:15:09.820Z,12.90
2023-05-05T12:17:46.380Z,12.90
2023-05-05T12:20:14.325Z,12.90
2023-05-05T12:22:42.445Z,13.00
2023-05-05T12:25:10.648Z,12.90
2023-05-05T12:27:39.112Z,12.90
2023-05-05T12:30:33.122Z,12.80
2023-05-05T12:33:07.880Z,12.70
2023-05-05T12:35:36.015Z,12.60
2023-05-05T12:38:04.374Z,12.60
2023-05-05T12:40:54.087Z,12.50
2023-05-05T12:43:26.896Z,12.50
2023-05-05T12:46:14.461Z,12.50
2023-05-05T12:48:46.358Z,12.40
2023-05-05T12:51:23.645Z,12.40
2023-05-05T12:54:12.445Z,12.40
2023-05-05T12:56:45.047Z,12.40
2023-05-05T12:59:22.886Z,12.40
2023-05-05T13:01:51.597Z,12.50
2023-05-05T13:04:21.337Z,12.50
2023-05-05T13:06:51.398Z,12.40
2023-05-05T13:09:34.672Z,12.40
2023-05-05T13:12:03.744Z,12.40
2023-05-05T13:14:34.480Z,12.40
2023-05-05T13:17:02.109Z,12.40
2023-05-05T13:19:30.153Z,12.40
2023-05-05T13:21:58.932Z,12.40
2023-05-05T13:24:42.376Z,12.40
2023-05-05T13:27:14.322Z,12.40
2023-05-05T13:29:42.618Z,12.30
2023-05-05T13:32:10.152Z,12.40
2023-05-05T13:34:39.532Z,12.30
2023-05-05T13:37:07.400Z,12.30
2023-05-05T13:39:35.063Z,12.30
2023-05-05T13:42:02.751Z,12.30
2023-05-05T13:44:30.224Z,12.30
2023-05-05T13:46:58.008Z,12.30
2023-05-05T13:49:26.056Z,12.30
2023-05-05T13:51:53.557Z,12.30
2023-05-05T13:54:22.673Z,12.30
2023-05-05T13:56:50.369Z,12.20
2023-05-05T13:59:17.887Z,12.20
2023-05-05T14:01:45.411Z,12.20
2023-05-05T14:04:13.015Z,12.20
2023-05-05T14:06:40.661Z,12.20
2023-05-05T14:09:08.420Z,12.30
2023-05-05T14:11:36.069Z,12.30
2023-05-05T14:14:03.657Z,12.30
2023-05-05T14:16:31.417Z,12.20
2023-05-05T14:18:58.981Z,12.30
2023-05-05T14:21:27.027Z,12.20
2023-05-05T14:23:54.544Z,12.20
2023-05-05T14:26:22.132Z,12.20
2023-05-05T14:28:50.152Z,12.20
2023-05-05T14:31:18.039Z,12.20
2023-05-05T14:33:48.632Z,12.10
2023-05-05T14:36:16.116Z,12.20
2023-05-05T14:38:43.719Z,12.10
2023-05-05T14:41:11.304Z,12.20
2023-05-05T14:43:39.401Z,12.10
2023-05-05T14:46:07.513Z,12.10
2023-05-05T14:48:35.319Z,12.10
2023-05-05T14:51:03.021Z,12.00
2023-05-05T14:53:30.779Z,12.00
2023-05-05T14:55:58.277Z,12.10
2023-05-05T14:58:25.857Z,12.00
2023-05-05T15:00:54.791Z,12.00
2023-05-05T15:03:22.710Z,12.00
2023-05-05T15:05:50.379Z,12.00
2023-05-05T15:08:19.509Z,12.00
2023-05-05T15:10:47.194Z,11.90
2023-05-05T15:13:15.029Z,11.90
2023-05-05T15:15:42.812Z,12.00
2023-05-05T15:18:10.332Z,11.90
2023-05-05T15:20:37.906Z,11.90
2023-05-05T15:23:05.447Z,11.90
2023-05-05T15:25:32.908Z,11.90
2023-05-05T15:28:01.182Z,11.90
2023-05-05T15:30:28.897Z,11.90
2023-05-05T15:32:56.695Z,11.80
2023-05-05T15:35:25.782Z,11.80
2023-05-05T15:37:54.760Z,11.80
2023-05-05T15:40:22.450Z,11.80
2023-05-05T15:42:50.222Z,11.80
2023-05-05T15:45:18.127Z,11.70
2023-05-05T15:47:46.520Z,11.70
2023-05-05T15:50:16.906Z,11.70
2023-05-05T15:52:44.623Z,11.70
2023-05-05T15:55:12.381Z,11.70
2023-05-05T15:57:40.644Z,11.70
2023-05-05T16:00:09.644Z,11.70
2023-05-05T16:02:37.289Z,11.60
2023-05-05T16:05:05.074Z,11.60
2023-05-05T16:07:32.705Z,11.60
2023-05-05T16:10:00.281Z,11.60
2023-05-05T16:12:27.879Z,11.60
2023-05-05T16:14:55.900Z,11.60
2023-05-05T16:17:23.421Z,10.90
2023-05-05T16:19:51.118Z,10.60
2023-05-05T16:22:18.675Z,10.70
2023-05-05T16:24:49.371Z,10.90
2023-05-05T16:27:17.195Z,11.00
2023-05-05T16:29:44.731Z,11.10
2023-05-05T16:32:12.389Z,11.10
2023-05-05T16:34:39.984Z,11.20
2023-05-05T16:37:07.496Z,11.20
2023-05-05T16:39:40.428Z,11.20
2023-05-05T16:42:08.002Z,11.20
2023-05-05T16:44:38.284Z,11.20
2023-05-05T16:47:05.834Z,11.20
2023-05-05T16:49:33.304Z,11.30
2023-05-05T16:52:00.859Z,11.20
2023-05-05T16:54:28.373Z,11.20
2023-05-05T16:56:56.259Z,11.20
2023-05-05T16:59:23.740Z,11.20
2023-05-05T17:01:51.372Z,11.20
2023-05-05T17:04:19.095Z,11.10
2023-05-05T17:06:46.583Z,11.20
2023-05-05T17:09:14.076Z,11.20
2023-05-05T17:11:41.710Z,11.20
2023-05-05T17:14:09.336Z,11.10
2023-05-05T17:16:37.150Z,11.10
2023-05-05T17:19:04.880Z,11.10
2023-05-05T17:21:33.063Z,11.10
2023-05-05T17:24:01.673Z,11.10
2023-05-05T17:26:30.166Z,11.10
2023-05-05T17:28:57.683Z,11.10
2023-05-05T17:31:25.326Z,11.10
2023-05-05T17:33:52.829Z,11.10
2023-05-05T17:36:20.509Z,11.10
2023-05-05T17:38:48.030Z,11.10
2023-05-05T17:41:15.581Z,11.10
2023-05-05T17:43:43.097Z,11.10
2023-05-05T17:46:10.707Z,11.10
2023-05-05T17:48:38.228Z,11.00
2023-05-05T17:51:05.868Z,11.00
2023-05-05T17:53:33.561Z,11.00
2023-05-05T17:56:01.080Z,11.00
2023-05-05T17:58:28.835Z,10.90
2023-05-05T18:00:56.426Z,10.90
2023-05-05T18:03:24.002Z,10.90
2023-05-05T18:05:51.684Z,10.90
2023-05-05T18:08:19.799Z,10.90
2023-05-05T18:10:47.366Z,10.90
2023-05-05T18:13:15.069Z,10.90
2023-05-05T18:15:42.714Z,10.90
2023-05-05T18:18:10.269Z,10.80
2023-05-05T18:20:37.885Z,10.80
2023-05-05T18:23:05.622Z,10.80
2023-05-05T18:25:33.131Z,10.70
2023-05-05T18:28:00.639Z,10.80
2023-05-05T18:30:28.253Z,10.80
2023-05-05T18:32:56.625Z,10.70
2023-05-05T18:35:24.259Z,10.70
2023-05-05T18:37:52.591Z,10.70
2023-05-05T18:40:20.162Z,10.70
2023-05-05T18:42:47.879Z,10.70
2023-05-05T18:45:15.554Z,10.70
2023-05-05T18:47:43.185Z,10.70
2023-05-05T18:50:10.891Z,10.70
2023-05-05T18:52:38.487Z,10.60
2023-05-05T18:55:06.493Z,10.70
2023-05-05T18:57:36.848Z,10.70
2023-05-05T19:00:04.571Z,10.70
2023-05-05T19:02:32.128Z,10.70
2023-05-05T19:04:59.671Z,10.60
2023-05-05T19:07:35.388Z,10.60
2023-05-05T19:10:05.195Z,10.60
2023-05-05T19:12:32.756Z,10.60
2023-05-05T19:15:00.305Z,10.60
2023-05-05T19:17:28.046Z,10.60
2023-05-05T19:19:55.974Z,10.60
2023-05-05T19:22:24.262Z,10.60
2023-05-05T19:24:51.748Z,10.50
2023-05-05T19:27:19.485Z,10.50
2023-05-05T19:29:52.329Z,10.50
2023-05-05T19:32:21.631Z,10.50
2023-05-05T19:34:49.416Z,10.50
2023-05-05T19:37:17.000Z,10.50
2023-05-05T19:39:45.943Z,10.40
2023-05-05T19:42:13.463Z,10.40
2023-05-05T19:44:41.042Z,10.40
2023-05-05T19:47:09.057Z,10.40
2023-05-05T19:49:38.461Z,10.40
2023-05-05T19:52:06.161Z,10.40
2023-05-05T19:54:33.720Z,10.40
2023-05-05T19:57:01.385Z,10.40
2023-05-05T19:59:28.974Z,10.40
2023-05-05T20:01:56.688Z,10.40
2023-05-05T20:04:24.461Z,10.40
2023-05-05T20:06:52.387Z,10.40
2023-05-05T20:09:20.177Z,10.40
2023-05-05T20:11:48.043Z,10.30
2023-05-05T20:14:18.464Z,10.30
2023-05-05T20:16:46.116Z,10.30
2023-05-05T20:19:13.874Z,10.30
2023-05-05T20:21:41.540Z,10.30
2023-05-05T20:24:09.664Z,10.30
2023-05-05T20:26:37.305Z,10.20
2023-05-05T20:29:07.987Z,10.30
2023-05-05T20:31:36.171Z,10.20
2023-05-05T20:34:03.733Z,10.20
2023-05-05T20:36:31.332Z,10.20
2023-05-05T20:38:58.764Z,10.10
2023-05-05T20:41:26.538Z,10.10
2023-05-05T20:43:54.032Z,10.10
2023-05-05T20:46:21.610Z,10.10
2023-05-05T20:48:49.102Z,10.10
2023-05-05T20:51:16.766Z,10.10
2023-05-05T20:53:44.352Z,10.10
2023-05-05T20:56:11.910Z,10.10
2023-05-05T20:58:39.442Z,10.00
2023-05-05T21:01:06.972Z,10.00
2023-05-05T21:03:34.514Z,10.00
2023-05-05T21:06:02.674Z,10.00
2023-05-05T21:08:30.867Z,9.90
2023-05-05T21:10:58.530Z,9.90
2023-05-05T21:13:26.089Z,9.90
2023-05-05T21:15:53.534Z,9.90
2023-05-05T21:18:21.373Z,9.90
2023-05-05T21:20:48.819Z,9.90
2023-05-05T21:23:16.363Z,9.90
2023-05-05T21:25:43.823Z,9.90
2023-05-05T21:28:11.375Z,9.90
2023-05-05T21:30:39.134Z,9.80
2023-05-05T21:33:06.666Z,9.80
2023-05-05T21:35:34.193Z,9.80
2023-05-05T21:38:01.727Z,9.80
2023-05-05T21:40:29.262Z,9.80
2023-05-05T21:42:56.840Z,9.80
2023-05-05T21:45:24.411Z,9.80
2023-05-05T21:47:51.940Z,9.70
2023-05-05T21:50:19.903Z,9.70
2023-05-05T21:52:47.456Z,9.70
2023-05-05T21:55:14.952Z,9.70
2023-05-05T21:57:42.749Z,9.60
2023-05-05T22:00:11.286Z,9.70
2023-05-05T22:02:39.198Z,9.70
2023-05-05T22:05:07.481Z,9.70
2023-05-05T22:07:35.205Z,9.70
2023-05-05T22:10:03.992Z,9.60
2023-05-05T22:12:31.556Z,9.60
2023-05-05T22:14:59.129Z,9.60
2023-05-05T22:17:26.605Z,9.60
2023-05-05T22:19:54.105Z,9.60
2023-05-05T22:22:21.939Z,9.60
2023-05-05T22:24:49.431Z,9.60
2023-05-05T22:27:17.058Z,9.50
2023-05-05T22:29:44.586Z,9.50
2023-05-05T22:32:12.208Z,9.50
2023-05-05T22:34:39.774Z,9.50
2023-05-05T22:37:07.664Z,9.50
2023-05-05T22:39:35.266Z,9.50
2023-05-05T22:42:04.063Z,9.50
2023-05-05T22:44:31.611Z,9.50
2023-05-05T22:46:59.249Z,9.50
2023-05-05T22:49:29.060Z,9.50
2023-05-05T22:51:57.485Z,9.40
2023-05-05T22:54:25.094Z,9.40
2023-05-05T22:56:52.701Z,9.40
2023-05-05T22:59:20.279Z,9.40
2023-05-05T23:01:47.768Z,9.40
2023-05-05T23:04:15.394Z,9.40
2023-05-05T23:06:43.191Z,9.40
2023-05-05T23:09:10.693Z,9.40
2023-05-05T23:11:38.374Z,9.40
2023-05-05T23:14:06.086Z,9.40
2023-05-05T23:16:33.845Z,9.40
2023-05-05T23:19:01.436Z,9.40
2023-05-05T23:21:29.374Z,9.40
2023-05-05T23:23:59.592Z,9.40
2023-05-05T23:26:27.193Z,9.40
2023-05-05T23:28:54.658Z,9.30
2023-05-05T23:31:22.665Z,9.30
2023-05-05T23:33:50.232Z,9.30
2023-05-05T23:36:18.341Z,9.30
2023-05-05T23:38:46.438Z,9.30
2023-05-05T23:41:14.028Z,9.30
2023-05-05T23:43:41.510Z,9.30
2023-05-05T23:46:09.094Z,9.30
2023-05-05T23:48:36.718Z,9.30
2023-05-05T23:51:04.245Z,9.30
2023-05-05T23:53:31.788Z,9.30
2023-05-05T23:55:59.382Z,9.20
2023-05-05T23:58:27.152Z,9.20
